Share

Hanoi, Viet Nam

12:21 PM ICT on April 24, 2014 (GMT +0700)
Noibai International (VVNB) Elev 36 ft | 21.22 °N, 105.81 °E | Change Station

Current weather conditions updated 21 minutes ago

Mostly Cloudy
Mostly Cloudy
82 °F
Feels Like 91 °F
N
8
Wind Variable Wind from SE
Sunrise 5:31 AM
Sunset 6:18 PM
Moon Waning Crescent

Today is forecast to be Much Warmer than yesterday.

Pressure 29.71 in
Visibility 2.8 miles
Clouds Scattered Clouds 600 ft
Mostly Cloudy 1300 ft
Heat Index 91 °F
Dew Point 77 °F
Humidity 84%
Rainfall 0.00 in
Snow Depth Not available.
UV 9 out of 16
Pollen Not available.
Air Quality Not available.
Flu Activity Not available.
METAR VVNB 240500Z 13007KT 100V160 4500 R11R/1400N BR SCT006 BKN013 28/25 Q1006 NOSIG

More Conditions Fewer Conditions

Pressure 29.71 in
Visibility 2.8 miles
Clouds Scattered Clouds 600 ft
Mostly Cloudy 1300 ft
Heat Index 91 °F
Dew Point 77 °F
Humidity 84%
Rainfall 0.00 in
Snow Depth Not available.
UV 9 out of 16
Pollen Not available.
Air Quality Not available.
Flu Activity Not available.
METAR VVNB 240500Z 13007KT 100V160 4500 R11R/1400N BR SCT006 BKN013 28/25 Q1006 NOSIG

More Conditions Fewer Conditions

10-Day Weather Forecast

Almanac

Astronomy

Apr. 24, 2014 Rise Set
Actual Time 5:31 AM ICT 6:18 PM ICT
Civil Twilight 5:08 AM ICT 6:41 PM ICT
Nautical Twilight 4:41 AM ICT 7:08 PM ICT
Astronomical Twilight 4:13 AM ICT 7:36 PM ICT
Moon 1:38 AM ICT 1:37 PM ICT
Length of Visible Light 13h 33m
Length of Day
12h 47m
Tomorrow will be 1m 5s longer.
Waning Crescent, 29% of the Moon is Illuminated
Today
Waning Crescent
Apr 29
New
May 6
First Quarter
May 14
Full
May 21
Last Quarter

Yesterday's Extremes

Country Highs Country Lows

Community

  • Stacked
    Stacked
  • clouds approaching Red Sox Nation
    clouds approaching Red Sox Nation
  • Balance
    Balance
  • Nestled In
    Nestled In
  • Stunning Sunrise
    Stunning Sunrise

WunderPhotos

Upload Photos

1,704,569 photos uploaded!

WunderBlogs® & News

Nearby

Snow Depth

Not available.

Coastal Water Temperatures

Place Temperature
No Stations Reporting

Earthquake Activity

City Distance Mag. Time & Date
No recent earthquake activity has been reported nearby.
Minimum magnitude displayed is 2.5.

Nearby Weather Stations

There are no personal weather stations in this area.

What do you think?

We're not finished. Please let us know what you like, what you don't like, and what you are still missing.